sensor_id;sensor_type;location;lat;lon;timestamp;pressure;altitude;pressure_sealevel;temperature;humidity
3668;BME280;24099;47.102;15.440;2023-05-10T00:01:40;97143.88;;;7.79;100.00
3668;BME280;24099;47.102;15.440;2023-05-10T00:04:08;97138.13;;;7.43;100.00
3668;BME280;24099;47.102;15.440;2023-05-10T00:06:39;97130.28;;;7.76;100.00
3668;BME280;24099;47.102;15.440;2023-05-10T00:09:07;97130.25;;;7.59;100.00
3668;BME280;24099;47.102;15.440;2023-05-10T00:11:34;97128.97;;;7.55;100.00
3668;BME280;24099;47.102;15.440;2023-05-10T00:14:05;97126.00;;;7.42;100.00
3668;BME280;24099;47.102;15.440;2023-05-10T00:16:33;97121.75;;;7.66;100.00
3668;BME280;24099;47.102;15.440;2023-05-10T00:19:01;97124.38;;;7.49;100.00
3668;BME280;24099;47.102;15.440;2023-05-10T00:21:30;97115.19;;;7.70;100.00
3668;BME280;24099;47.102;15.440;2023-05-10T00:23:59;97121.75;;;7.33;100.00
3668;BME280;24099;47.102;15.440;2023-05-10T00:26:30;97113.53;;;7.20;100.00
3668;BME280;24099;47.102;15.440;2023-05-10T00:28:58;97119.31;;;7.32;100.00
3668;BME280;24099;47.102;15.440;2023-05-10T00:31:26;97126.47;;;7.05;100.00
3668;BME280;24099;47.102;15.440;2023-05-10T00:33:54;97119.44;;;6.98;100.00
3668;BME280;24099;47.102;15.440;2023-05-10T00:36:21;97122.06;;;7.14;100.00
3668;BME280;24099;47.102;15.440;2023-05-10T00:38:51;97120.94;;;7.33;100.00
3668;BME280;24099;47.102;15.440;2023-05-10T00:41:53;97112.03;;;6.85;100.00
3668;BME280;24099;47.102;15.440;2023-05-10T00:44:21;97113.69;;;6.94;100.00
3668;BME280;24099;47.102;15.440;2023-05-10T00:46:49;97119.63;;;7.29;100.00
3668;BME280;24099;47.102;15.440;2023-05-10T00:49:17;97113.53;;;7.04;100.00
3668;BME280;24099;47.102;15.440;2023-05-10T00:51:45;97109.81;;;7.14;100.00
3668;BME280;24099;47.102;15.440;2023-05-10T00:54:14;97112.28;;;7.32;100.00
3668;BME280;24099;47.102;15.440;2023-05-10T00:56:42;97100.31;;;7.13;100.00
3668;BME280;24099;47.102;15.440;2023-05-10T00:59:19;97096.53;;;7.08;100.00
3668;BME280;24099;47.102;15.440;2023-05-10T01:01:57;97095.22;;;7.04;100.00
3668;BME280;24099;47.102;15.440;2023-05-10T01:04:25;97092.59;;;6.96;100.00
3668;BME280;24099;47.102;15.440;2023-05-10T01:06:53;97094.53;;;6.85;100.00
3668;BME280;24099;47.102;15.440;2023-05-10T01:09:22;97091.25;;;6.83;100.00
3668;BME280;24099;47.102;15.440;2023-05-10T01:11:49;97092.91;;;6.76;100.00
3668;BME280;24099;47.102;15.440;2023-05-10T01:14:20;97092.06;;;6.84;100.00
3668;BME280;24099;47.102;15.440;2023-05-10T01:16:49;97091.13;;;6.93;100.00
3668;BME280;24099;47.102;15.440;2023-05-10T01:19:19;97087.81;;;6.83;100.00
3668;BME280;24099;47.102;15.440;2023-05-10T01:21:53;97090.28;;;6.76;100.00
3668;BME280;24099;47.102;15.440;2023-05-10T01:27:54;97087.81;;;6.83;100.00
3668;BME280;24099;47.102;15.440;2023-05-10T01:37:21;97074.44;;;6.86;100.00
3668;BME280;24099;47.102;15.440;2023-05-10T01:40:00;97082.47;;;6.93;100.00
3668;BME280;24099;47.102;15.440;2023-05-10T01:42:36;97077.41;;;6.41;100.00
3668;BME280;24099;47.102;15.440;2023-05-10T01:45:14;97073.56;;;6.69;100.00
3668;BME280;24099;47.102;15.440;2023-05-10T01:47:44;97076.88;;;6.79;100.00
3668;BME280;24099;47.102;15.440;2023-05-10T01:50:18;97066.25;;;6.89;100.00
3668;BME280;24099;47.102;15.440;2023-05-10T01:52:53;97067.03;;;6.57;100.00
3668;BME280;24099;47.102;15.440;2023-05-10T01:55:24;97073.41;;;6.20;100.00
3668;BME280;24099;47.102;15.440;2023-05-10T01:57:58;97069.94;;;6.54;100.00
3668;BME280;24099;47.102;15.440;2023-05-10T02:00:28;97067.34;;;6.62;100.00
3668;BME280;24099;47.102;15.440;2023-05-10T02:02:57;97067.13;;;6.47;100.00
3668;BME280;24099;47.102;15.440;2023-05-10T02:05:29;97075.34;;;6.52;100.00
3668;BME280;24099;47.102;15.440;2023-05-10T02:08:02;97070.81;;;6.71;100.00
3668;BME280;24099;47.102;15.440;2023-05-10T02:10:33;97059.19;;;6.57;100.00
3668;BME280;24099;47.102;15.440;2023-05-10T02:13:02;97058.19;;;6.66;100.00
3668;BME280;24099;47.102;15.440;2023-05-10T02:15:33;97064.38;;;6.49;100.00
3668;BME280;24099;47.102;15.440;2023-05-10T02:18:03;97060.91;;;6.40;100.00
3668;BME280;24099;47.102;15.440;2023-05-10T02:20:32;97049.56;;;6.23;100.00
3668;BME280;24099;47.102;15.440;2023-05-10T02:23:04;97051.56;;;6.30;100.00
3668;BME280;24099;47.102;15.440;2023-05-10T02:25:33;97051.56;;;6.30;100.00
3668;BME280;24099;47.102;15.440;2023-05-10T02:28:03;97047.16;;;6.30;100.00
3668;BME280;24099;47.102;15.440;2023-05-10T02:30:33;97059.91;;;6.33;100.00
3668;BME280;24099;47.102;15.440;2023-05-10T02:33:03;97056.13;;;6.28;100.00
3668;BME280;24099;47.102;15.440;2023-05-10T02:35:34;97047.66;;;6.42;100.00
3668;BME280;24099;47.102;15.440;2023-05-10T02:38:04;97050.75;;;6.29;100.00
3668;BME280;24099;47.102;15.440;2023-05-10T02:40:34;97040.28;;;6.29;100.00
3668;BME280;24099;47.102;15.440;2023-05-10T02:43:03;97043.09;;;6.36;100.00
3668;BME280;24099;47.102;15.440;2023-05-10T02:45:33;97029.53;;;6.40;100.00
3668;BME280;24099;47.102;15.440;2023-05-10T02:48:03;97032.28;;;5.88;100.00
3668;BME280;24099;47.102;15.440;2023-05-10T02:50:34;97043.94;;;6.02;100.00
3668;BME280;24099;47.102;15.440;2023-05-10T02:53:09;97044.03;;;6.18;100.00
3668;BME280;24099;47.102;15.440;2023-05-10T02:55:40;97046.25;;;5.79;100.00
3668;BME280;24099;47.102;15.440;2023-05-10T02:58:08;97054.09;;;5.79;100.00
3668;BME280;24099;47.102;15.440;2023-05-10T03:00:36;97047.34;;;5.95;100.00
3668;BME280;24099;47.102;15.440;2023-05-10T03:03:04;97044.66;;;5.86;100.00
3668;BME280;24099;47.102;15.440;2023-05-10T03:05:34;97049.88;;;5.86;100.00
3668;BME280;24099;47.102;15.440;2023-05-10T03:08:05;97038.59;;;5.86;100.00
3668;BME280;24099;47.102;15.440;2023-05-10T03:10:38;97053.06;;;5.72;100.00
3668;BME280;24099;47.102;15.440;2023-05-10T03:13:16;97050.25;;;5.92;100.00
3668;BME280;24099;47.102;15.440;2023-05-10T03:15:55;97053.56;;;6.02;100.00
3668;BME280;24099;47.102;15.440;2023-05-10T03:18:31;97054.38;;;6.02;100.00
3668;BME280;24099;47.102;15.440;2023-05-10T03:21:02;97062.56;;;6.07;100.00
3668;BME280;24099;47.102;15.440;2023-05-10T03:23:39;97062.22;;;5.76;100.00
3668;BME280;24099;47.102;15.440;2023-05-10T03:26:09;97061.25;;;5.51;100.00
3668;BME280;24099;47.102;15.440;2023-05-10T03:28:37;97055.75;;;5.63;100.00
3668;BME280;24099;47.102;15.440;2023-05-10T03:31:08;97057.16;;;5.75;100.00
3668;BME280;24099;47.102;15.440;2023-05-10T03:33:41;97058.75;;;5.68;100.00
3668;BME280;24099;47.102;15.440;2023-05-10T03:36:13;97060.75;;;5.74;100.00
3668;BME280;24099;47.102;15.440;2023-05-10T03:38:42;97058.13;;;6.00;100.00
3668;BME280;24099;47.102;15.440;2023-05-10T03:41:10;97062.38;;;6.01;100.00
3668;BME280;24099;47.102;15.440;2023-05-10T03:43:39;97066.81;;;6.08;100.00
3668;BME280;24099;47.102;15.440;2023-05-10T03:46:08;97067.44;;;6.02;100.00
3668;BME280;24099;47.102;15.440;2023-05-10T03:48:36;97068.28;;;5.77;100.00
3668;BME280;24099;47.102;15.440;2023-05-10T03:51:03;97072.19;;;5.81;100.00
3668;BME280;24099;47.102;15.440;2023-05-10T03:53:32;97065.47;;;5.96;100.00
3668;BME280;24099;47.102;15.440;2023-05-10T03:56:01;97065.53;;;5.86;100.00
3668;BME280;24099;47.102;15.440;2023-05-10T03:58:29;97068.09;;;5.96;100.00
3668;BME280;24099;47.102;15.440;2023-05-10T04:01:02;97075.03;;;6.13;100.00
3668;BME280;24099;47.102;15.440;2023-05-10T04:03:30;97072.06;;;6.08;100.00
3668;BME280;24099;47.102;15.440;2023-05-10T04:06:04;97068.78;;;6.06;100.00
3668;BME280;24099;47.102;15.440;2023-05-10T04:08:33;97064.16;;;6.00;100.00
3668;BME280;24099;47.102;15.440;2023-05-10T04:11:09;97066.66;;;6.10;100.00
3668;BME280;24099;47.102;15.440;2023-05-10T04:13:37;97073.13;;;5.72;100.00
3668;BME280;24099;47.102;15.440;2023-05-10T04:16:05;97074.19;;;5.87;100.00
3668;BME280;24099;47.102;15.440;2023-05-10T04:18:34;97075.63;;;5.99;100.00
3668;BME280;24099;47.102;15.440;2023-05-10T04:21:02;97077.41;;;5.99;100.00
3668;BME280;24099;47.102;15.440;2023-05-10T04:23:30;97084.09;;;6.01;100.00
3668;BME280;24099;47.102;15.440;2023-05-10T04:26:01;97084.81;;;6.11;100.00
3668;BME280;24099;47.102;15.440;2023-05-10T04:28:30;97082.63;;;5.99;100.00
3668;BME280;24099;47.102;15.440;2023-05-10T04:31:02;97087.94;;;6.15;100.00
3668;BME280;24099;47.102;15.440;2023-05-10T04:33:30;97082.41;;;6.18;100.00
3668;BME280;24099;47.102;15.440;2023-05-10T04:35:58;97086.97;;;6.16;100.00
3668;BME280;24099;47.102;15.440;2023-05-10T04:38:26;97088.31;;;6.28;100.00
3668;BME280;24099;47.102;15.440;2023-05-10T04:40:54;97090.56;;;6.23;100.00
3668;BME280;24099;47.102;15.440;2023-05-10T04:43:21;97088.66;;;6.33;100.00
3668;BME280;24099;47.102;15.440;2023-05-10T04:45:50;97090.47;;;6.33;100.00
3668;BME280;24099;47.102;15.440;2023-05-10T04:48:18;97089.47;;;6.34;100.00
3668;BME280;24099;47.102;15.440;2023-05-10T04:50:46;97089.69;;;6.48;100.00
3668;BME280;24099;47.102;15.440;2023-05-10T04:53:14;97090.19;;;6.52;100.00
3668;BME280;24099;47.102;15.440;2023-05-10T04:55:42;97095.78;;;6.57;100.00
3668;BME280;24099;47.102;15.440;2023-05-10T04:58:10;97098.06;;;6.60;100.00
3668;BME280;24099;47.102;15.440;2023-05-10T05:00:38;97096.59;;;6.66;100.00
3668;BME280;24099;47.102;15.440;2023-05-10T05:03:07;97077.81;;;6.62;100.00
3668;BME280;24099;47.102;15.440;2023-05-10T05:05:35;97086.19;;;6.74;100.00
3668;BME280;24099;47.102;15.440;2023-05-10T05:08:03;97095.94;;;6.64;100.00
3668;BME280;24099;47.102;15.440;2023-05-10T05:10:33;97090.25;;;6.68;100.00
3668;BME280;24099;47.102;15.440;2023-05-10T05:13:01;97096.47;;;6.75;100.00
3668;BME280;24099;47.102;15.440;2023-05-10T05:15:29;97092.91;;;6.84;100.00
3668;BME280;24099;47.102;15.440;2023-05-10T05:17:57;97100.94;;;6.91;100.00
3668;BME280;24099;47.102;15.440;2023-05-10T05:20:26;97100.59;;;6.86;100.00
3668;BME280;24099;47.102;15.440;2023-05-10T05:22:55;97099.44;;;6.88;100.00
3668;BME280;24099;47.102;15.440;2023-05-10T05:25:28;97101.59;;;6.93;100.00
3668;BME280;24099;47.102;15.440;2023-05-10T05:27:55;97107.16;;;6.98;100.00
3668;BME280;24099;47.102;15.440;2023-05-10T05:30:23;97091.13;;;7.01;100.00
3668;BME280;24099;47.102;15.440;2023-05-10T05:32:50;97111.44;;;7.23;100.00
3668;BME280;24099;47.102;15.440;2023-05-10T05:35:18;97112.75;;;7.36;100.00
3668;BME280;24099;47.102;15.440;2023-05-10T05:37:47;97110.16;;;7.52;100.00
3668;BME280;24099;47.102;15.440;2023-05-10T05:40:15;97109.50;;;7.58;100.00
3668;BME280;24099;47.102;15.440;2023-05-10T05:42:43;97114.22;;;7.63;100.00
3668;BME280;24099;47.102;15.440;2023-05-10T05:45:10;97116.84;;;7.71;100.00
3668;BME280;24099;47.102;15.440;2023-05-10T05:47:39;97114.19;;;7.87;100.00
3668;BME280;24099;47.102;15.440;2023-05-10T05:50:07;97117.13;;;8.00;100.00
3668;BME280;24099;47.102;15.440;2023-05-10T05:52:35;97110.06;;;8.17;100.00
3668;BME280;24099;47.102;15.440;2023-05-10T05:55:08;97110.78;;;8.50;100.00
3668;BME280;24099;47.102;15.440;2023-05-10T05:57:35;97108.53;;;8.39;100.00
3668;BME280;24099;47.102;15.440;2023-05-10T06:00:07;97101.94;;;8.51;100.00
3668;BME280;24099;47.102;15.440;2023-05-10T06:02:40;97104.78;;;8.72;100.00
3668;BME280;24099;47.102;15.440;2023-05-10T06:05:09;97107.44;;;8.64;100.00
3668;BME280;24099;47.102;15.440;2023-05-10T06:07:37;97103.56;;;8.83;100.00
3668;BME280;24099;47.102;15.440;2023-05-10T06:10:07;97100.22;;;8.97;100.00
3668;BME280;24099;47.102;15.440;2023-05-10T06:12:35;97107.84;;;9.07;100.00
3668;BME280;24099;47.102;15.440;2023-05-10T06:15:03;97109.97;;;9.34;100.00
3668;BME280;24099;47.102;15.440;2023-05-10T06:17:31;97117.69;;;9.36;100.00
3668;BME280;24099;47.102;15.440;2023-05-10T06:19:59;97115.09;;;9.50;100.00
3668;BME280;24099;47.102;15.440;2023-05-10T06:22:27;97118.03;;;9.55;100.00
3668;BME280;24099;47.102;15.440;2023-05-10T06:24:55;97119.03;;;9.54;100.00
3668;BME280;24099;47.102;15.440;2023-05-10T06:27:24;97115.78;;;9.67;100.00
3668;BME280;24099;47.102;15.440;2023-05-10T06:29:52;97114.88;;;9.97;100.00
3668;BME280;24099;47.102;15.440;2023-05-10T06:32:21;97110.06;;;10.16;100.00
3668;BME280;24099;47.102;15.440;2023-05-10T06:34:49;97107.50;;;9.93;100.00
3668;BME280;24099;47.102;15.440;2023-05-10T06:37:17;97105.16;;;9.98;100.00
3668;BME280;24099;47.102;15.440;2023-05-10T06:39:44;97101.91;;;10.11;100.00
3668;BME280;24099;47.102;15.440;2023-05-10T06:42:12;97087.03;;;10.18;100.00
3668;BME280;24099;47.102;15.440;2023-05-10T06:44:41;97082.78;;;10.31;100.00
3668;BME280;24099;47.102;15.440;2023-05-10T06:47:09;97085.94;;;10.42;100.00
3668;BME280;24099;47.102;15.440;2023-05-10T06:49:37;97075.34;;;10.50;100.00
3668;BME280;24099;47.102;15.440;2023-05-10T06:52:06;97059.19;;;10.53;100.00
3668;BME280;24099;47.102;15.440;2023-05-10T06:54:33;97042.06;;;10.78;100.00
3668;BME280;24099;47.102;15.440;2023-05-10T06:57:01;97038.94;;;10.89;100.00
3668;BME280;24099;47.102;15.440;2023-05-10T06:59:30;97024.03;;;10.96;100.00
3668;BME280;24099;47.102;15.440;2023-05-10T07:01:59;97016.81;;;11.05;100.00
3668;BME280;24099;47.102;15.440;2023-05-10T07:04:27;97014.09;;;11.20;100.00
3668;BME280;24099;47.102;15.440;2023-05-10T07:06:57;96997.25;;;11.42;100.00
3668;BME280;24099;47.102;15.440;2023-05-10T07:09:24;96994.81;;;11.40;100.00
3668;BME280;24099;47.102;15.440;2023-05-10T07:11:52;96992.84;;;11.49;100.00
3668;BME280;24099;47.102;15.440;2023-05-10T07:14:20;96984.69;;;11.44;100.00
3668;BME280;24099;47.102;15.440;2023-05-10T07:16:48;96990.69;;;11.59;100.00
3668;BME280;24099;47.102;15.440;2023-05-10T07:19:20;96973.84;;;11.60;100.00
3668;BME280;24099;47.102;15.440;2023-05-10T07:21:48;96979.34;;;11.87;100.00
3668;BME280;24099;47.102;15.440;2023-05-10T07:24:17;96972.09;;;12.02;100.00
3668;BME280;24099;47.102;15.440;2023-05-10T07:26:44;96968.53;;;12.16;100.00
3668;BME280;24099;47.102;15.440;2023-05-10T07:29:12;96962.63;;;12.14;100.00
3668;BME280;24099;47.102;15.440;2023-05-10T07:31:40;96967.41;;;12.38;100.00
3668;BME280;24099;47.102;15.440;2023-05-10T07:34:09;96963.25;;;12.77;100.00
3668;BME280;24099;47.102;15.440;2023-05-10T07:36:38;96965.66;;;12.85;100.00
3668;BME280;24099;47.102;15.440;2023-05-10T07:39:06;96960.22;;;13.13;100.00
3668;BME280;24099;47.102;15.440;2023-05-10T07:41:34;96952.94;;;13.35;100.00
3668;BME280;24099;47.102;15.440;2023-05-10T07:44:04;96950.06;;;13.10;100.00
3668;BME280;24099;47.102;15.440;2023-05-10T07:46:31;96949.63;;;12.93;100.00
3668;BME280;24099;47.102;15.440;2023-05-10T07:48:59;96960.00;;;13.01;100.00
3668;BME280;24099;47.102;15.440;2023-05-10T07:51:27;96960.41;;;13.11;100.00
3668;BME280;24099;47.102;15.440;2023-05-10T07:53:56;96962.91;;;13.33;100.00
3668;BME280;24099;47.102;15.440;2023-05-10T07:56:25;96957.00;;;13.31;100.00
3668;BME280;24099;47.102;15.440;2023-05-10T07:58:56;96954.13;;;13.13;100.00
3668;BME280;24099;47.102;15.440;2023-05-10T08:01:24;96957.59;;;13.20;100.00
3668;BME280;24099;47.102;15.440;2023-05-10T08:03:52;96957.00;;;13.31;100.00
3668;BME280;24099;47.102;15.440;2023-05-10T08:06:22;96963.91;;;13.32;100.00
3668;BME280;24099;47.102;15.440;2023-05-10T08:08:52;96954.75;;;13.48;100.00
3668;BME280;24099;47.102;15.440;2023-05-10T08:11:21;96959.22;;;13.40;100.00
3668;BME280;24099;47.102;15.440;2023-05-10T08:13:50;96956.59;;;13.27;100.00
3668;BME280;24099;47.102;15.440;2023-05-10T08:16:18;96957.34;;;13.67;100.00
3668;BME280;24099;47.102;15.440;2023-05-10T08:18:46;96956.34;;;13.62;100.00
3668;BME280;24099;47.102;15.440;2023-05-10T08:21:15;96949.22;;;13.62;100.00
3668;BME280;24099;47.102;15.440;2023-05-10T08:23:43;96953.69;;;13.75;100.00
3668;BME280;24099;47.102;15.440;2023-05-10T08:26:11;96957.72;;;13.91;100.00
3668;BME280;24099;47.102;15.440;2023-05-10T08:28:43;96950.59;;;13.85;100.00
3668;BME280;24099;47.102;15.440;2023-05-10T08:31:11;96952.25;;;13.72;100.00
3668;BME280;24099;47.102;15.440;2023-05-10T08:33:39;96952.47;;;13.71;100.00
3668;BME280;24099;47.102;15.440;2023-05-10T08:36:07;96947.06;;;14.10;100.00
3668;BME280;24099;47.102;15.440;2023-05-10T08:38:35;96949.53;;;13.99;100.00
3668;BME280;24099;47.102;15.440;2023-05-10T08:41:08;96952.44;;;13.84;100.00
3668;BME280;24099;47.102;15.440;2023-05-10T08:43:37;96947.13;;;13.91;100.00
3668;BME280;24099;47.102;15.440;2023-05-10T08:46:10;96951.53;;;14.17;100.00
3668;BME280;24099;47.102;15.440;2023-05-10T08:48:39;96946.50;;;14.40;100.00
3668;BME280;24099;47.102;15.440;2023-05-10T08:51:08;96933.25;;;14.53;100.00
3668;BME280;24099;47.102;15.440;2023-05-10T08:53:38;96946.69;;;14.58;100.00
3668;BME280;24099;47.102;15.440;2023-05-10T08:56:07;96937.41;;;14.74;100.00
3668;BME280;24099;47.102;15.440;2023-05-10T08:58:35;96943.81;;;14.91;100.00
3668;BME280;24099;47.102;15.440;2023-05-10T09:01:04;96939.31;;;14.60;100.00
3668;BME280;24099;47.102;15.440;2023-05-10T09:03:33;96939.28;;;14.67;100.00
3668;BME280;24099;47.102;15.440;2023-05-10T09:06:05;96939.81;;;14.44;100.00
3668;BME280;24099;47.102;15.440;2023-05-10T09:08:33;96937.47;;;14.61;100.00
3668;BME280;24099;47.102;15.440;2023-05-10T09:11:01;96933.75;;;14.68;100.00
3668;BME280;24099;47.102;15.440;2023-05-10T09:13:30;96931.41;;;14.85;100.00
3668;BME280;24099;47.102;15.440;2023-05-10T09:15:58;96930.66;;;14.78;100.00
3668;BME280;24099;47.102;15.440;2023-05-10T09:18:26;96928.72;;;14.92;100.00
3668;BME280;24099;47.102;15.440;2023-05-10T09:20:55;96932.13;;;15.24;100.00
3668;BME280;24099;47.102;15.440;2023-05-10T09:23:23;96930.53;;;15.41;100.00
3668;BME280;24099;47.102;15.440;2023-05-10T09:26:02;96932.03;;;15.37;100.00
3668;BME280;24099;47.102;15.440;2023-05-10T09:28:32;96930.50;;;15.23;100.00
3668;BME280;24099;47.102;15.440;2023-05-10T09:31:00;96933.66;;;15.38;100.00
3668;BME280;24099;47.102;15.440;2023-05-10T09:33:27;96932.91;;;15.31;100.00
3668;BME280;24099;47.102;15.440;2023-05-10T09:36:07;96924.81;;;15.69;100.00
3668;BME280;24099;47.102;15.440;2023-05-10T09:38:46;96927.84;;;15.91;100.00
3668;BME280;24099;47.102;15.440;2023-05-10T09:41:18;96922.81;;;15.64;100.00
3668;BME280;24099;47.102;15.440;2023-05-10T09:43:47;96917.94;;;15.61;100.00
3668;BME280;24099;47.102;15.440;2023-05-10T09:46:15;96927.59;;;15.31;100.00
3668;BME280;24099;47.102;15.440;2023-05-10T09:48:45;96925.69;;;15.63;100.00
3668;BME280;24099;47.102;15.440;2023-05-10T09:51:21;96917.06;;;15.67;100.00
3668;BME280;24099;47.102;15.440;2023-05-10T09:53:50;96917.28;;;16.02;100.00
3668;BME280;24099;47.102;15.440;2023-05-10T09:56:36;96903.72;;;16.10;100.00
3668;BME280;24099;47.102;15.440;2023-05-10T09:59:05;96911.47;;;15.94;100.00
3668;BME280;24099;47.102;15.440;2023-05-10T10:01:37;96902.56;;;16.36;100.00
3668;BME280;24099;47.102;15.440;2023-05-10T10:04:12;96906.53;;;16.45;100.00
3668;BME280;24099;47.102;15.440;2023-05-10T10:06:41;96905.28;;;16.78;100.00
3668;BME280;24099;47.102;15.440;2023-05-10T10:09:09;96907.91;;;16.18;100.00
3668;BME280;24099;47.102;15.440;2023-05-10T10:11:38;96905.94;;;15.95;100.00
3668;BME280;24099;47.102;15.440;2023-05-10T10:14:07;96904.06;;;16.32;100.00
3668;BME280;24099;47.102;15.440;2023-05-10T10:16:35;96894.75;;;16.83;100.00
3668;BME280;24099;47.102;15.440;2023-05-10T10:19:03;96893.38;;;16.80;100.00
3668;BME280;24099;47.102;15.440;2023-05-10T10:21:32;96892.34;;;16.51;100.00
3668;BME280;24099;47.102;15.440;2023-05-10T10:24:01;96883.72;;;17.09;100.00
3668;BME280;24099;47.102;15.440;2023-05-10T10:26:34;96889.97;;;17.27;100.00
3668;BME280;24099;47.102;15.440;2023-05-10T10:29:12;96883.59;;;17.04;100.00
3668;BME280;24099;47.102;15.440;2023-05-10T10:31:47;96880.59;;;17.24;100.00
3668;BME280;24099;47.102;15.440;2023-05-10T10:34:27;96883.34;;;16.94;97.38
3668;BME280;24099;47.102;15.440;2023-05-10T10:36:56;96879.25;;;16.80;96.07
3668;BME280;24099;47.102;15.440;2023-05-10T10:39:26;96876.16;;;16.83;97.45
3668;BME280;24099;47.102;15.440;2023-05-10T10:41:58;96870.56;;;17.38;100.00
3668;BME280;24099;47.102;15.440;2023-05-10T10:44:36;96872.63;;;17.47;92.96
3668;BME280;24099;47.102;15.440;2023-05-10T10:47:21;96869.75;;;17.37;89.04
3668;BME280;24099;47.102;15.440;2023-05-10T10:50:07;96875.88;;;17.38;81.07
3668;BME280;24099;47.102;15.440;2023-05-10T10:52:36;96876.91;;;17.13;84.64
3668;BME280;24099;47.102;15.440;2023-05-10T10:55:07;96870.19;;;17.22;85.97
3668;BME280;24099;47.102;15.440;2023-05-10T10:57:44;96874.00;;;17.50;91.39
3668;BME280;24099;47.102;15.440;2023-05-10T11:00:28;96868.91;;;16.90;89.51
3668;BME280;24099;47.102;15.440;2023-05-10T11:02:58;96870.75;;;17.01;91.33
3668;BME280;24099;47.102;15.440;2023-05-10T11:05:44;96865.91;;;17.45;91.49
3668;BME280;24099;47.102;15.440;2023-05-10T11:08:15;96864.13;;;16.69;89.75
3668;BME280;24099;47.102;15.440;2023-05-10T11:13:39;96866.13;;;17.20;92.00
3668;BME280;24099;47.102;15.440;2023-05-10T11:16:24;96861.75;;;17.26;92.38
3668;BME280;24099;47.102;15.440;2023-05-10T11:18:56;96863.25;;;17.33;98.01
3668;BME280;24099;47.102;15.440;2023-05-10T11:21:24;96857.09;;;17.21;92.06
3668;BME280;24099;47.102;15.440;2023-05-10T11:23:54;96857.81;;;17.05;92.64
3668;BME280;24099;47.102;15.440;2023-05-10T11:26:25;96860.94;;;17.37;92.65
3668;BME280;24099;47.102;15.440;2023-05-10T11:28:54;96861.69;;;16.79;94.96
3668;BME280;24099;47.102;15.440;2023-05-10T11:31:29;96859.03;;;16.79;94.67
3668;BME280;24099;47.102;15.440;2023-05-10T11:33:59;96860.91;;;17.02;98.16
3668;BME280;24099;47.102;15.440;2023-05-10T11:36:29;96860.66;;;16.80;97.24
3668;BME280;24099;47.102;15.440;2023-05-10T11:39:05;96864.97;;;16.51;100.00
3668;BME280;24099;47.102;15.440;2023-05-10T11:41:35;96865.28;;;16.84;100.00
3668;BME280;24099;47.102;15.440;2023-05-10T11:44:03;96864.47;;;16.84;100.00
3668;BME280;24099;47.102;15.440;2023-05-10T11:46:30;96863.59;;;17.13;99.63
3668;BME280;24099;47.102;15.440;2023-05-10T11:49:00;96856.88;;;16.99;96.59
3668;BME280;24099;47.102;15.440;2023-05-10T11:51:32;96858.47;;;16.77;99.03
3668;BME280;24099;47.102;15.440;2023-05-10T11:54:00;96868.25;;;16.35;100.00
3668;BME280;24099;47.102;15.440;2023-05-10T11:56:28;96854.34;;;16.63;100.00
3668;BME280;24099;47.102;15.440;2023-05-10T11:58:58;96854.91;;;16.95;97.08
3668;BME280;24099;47.102;15.440;2023-05-10T12:01:28;96853.47;;;16.69;98.76
3668;BME280;24099;47.102;15.440;2023-05-10T12:03:57;96860.13;;;16.18;100.00
3668;BME280;24099;47.102;15.440;2023-05-10T12:06:28;96856.66;;;15.99;100.00
3668;BME280;24099;47.102;15.440;2023-05-10T12:08:57;96855.00;;;16.46;100.00
3668;BME280;24099;47.102;15.440;2023-05-10T12:11:40;96855.94;;;17.05;100.00
3668;BME280;24099;47.102;15.440;2023-05-10T12:14:12;96857.19;;;16.79;100.00
3668;BME280;24099;47.102;15.440;2023-05-10T12:16:43;96857.44;;;16.90;100.00
3668;BME280;24099;47.102;15.440;2023-05-10T12:19:18;96856.00;;;16.64;100.00
3668;BME280;24099;47.102;15.440;2023-05-10T12:21:47;96861.59;;;16.74;100.00
3668;BME280;24099;47.102;15.440;2023-05-10T12:24:16;96856.38;;;16.79;100.00
3668;BME280;24099;47.102;15.440;2023-05-10T12:26:45;96850.81;;;16.69;100.00
3668;BME280;24099;47.102;15.440;2023-05-10T12:29:19;96855.78;;;16.65;100.00
3668;BME280;24099;47.102;15.440;2023-05-10T12:31:54;96859.28;;;16.47;99.90
3668;BME280;24099;47.102;15.440;2023-05-10T12:34:35;96859.44;;;16.52;100.00
3668;BME280;24099;47.102;15.440;2023-05-10T12:37:05;96855.97;;;16.52;100.00
3668;BME280;24099;47.102;15.440;2023-05-10T12:39:39;96856.94;;;16.39;100.00
3668;BME280;24099;47.102;15.440;2023-05-10T12:42:14;96856.03;;;16.45;100.00
3668;BME280;24099;47.102;15.440;2023-05-10T12:44:43;96855.59;;;16.90;99.14
3668;BME280;24099;47.102;15.440;2023-05-10T12:47:10;96855.06;;;16.28;100.00
3668;BME280;24099;47.102;15.440;2023-05-10T12:49:38;96860.31;;;16.46;100.00
3668;BME280;24099;47.102;15.440;2023-05-10T12:52:06;96852.03;;;16.54;100.00
3668;BME280;24099;47.102;15.440;2023-05-10T12:54:37;96857.66;;;16.46;100.00
3668;BME280;24099;47.102;15.440;2023-05-10T12:57:10;96861.75;;;16.61;100.00
3668;BME280;24099;47.102;15.440;2023-05-10T12:59:42;96863.88;;;16.40;100.00
3668;BME280;24099;47.102;15.440;2023-05-10T13:02:10;96856.69;;;16.29;100.00
3668;BME280;24099;47.102;15.440;2023-05-10T13:04:38;96855.06;;;16.28;100.00
3668;BME280;24099;47.102;15.440;2023-05-10T13:07:06;96854.25;;;16.28;100.00
3668;BME280;24099;47.102;15.440;2023-05-10T13:09:36;96848.13;;;16.27;100.00
3668;BME280;24099;47.102;15.440;2023-05-10T13:12:07;96849.31;;;16.31;100.00
3668;BME280;24099;47.102;15.440;2023-05-10T13:14:35;96844.41;;;16.16;100.00
3668;BME280;24099;47.102;15.440;2023-05-10T13:17:04;96853.00;;;16.30;100.00
3668;BME280;24099;47.102;15.440;2023-05-10T13:19:32;96849.97;;;16.27;100.00
3668;BME280;24099;47.102;15.440;2023-05-10T13:21:59;96852.00;;;16.13;100.00
3668;BME280;24099;47.102;15.440;2023-05-10T13:24:27;96847.94;;;16.40;100.00